createdAt,value
2022-12-03T00:00:46.633Z,37.23
2022-12-03T00:03:13.792Z,38.67
2022-12-03T00:05:48.367Z,37.13
2022-12-03T00:08:15.837Z,37.90
2022-12-03T00:10:42.820Z,37.10
2022-12-03T00:13:10.145Z,35.93
2022-12-03T00:15:37.173Z,38.03
2022-12-03T00:18:04.135Z,36.37
2022-12-03T00:20:31.020Z,35.10
2022-12-03T00:22:57.860Z,37.10
2022-12-03T00:25:24.859Z,34.63
2022-12-03T00:27:51.827Z,37.23
2022-12-03T00:30:19.021Z,35.90
2022-12-03T00:32:45.846Z,35.77
2022-12-03T00:35:12.721Z,37.20
2022-12-03T00:37:39.615Z,35.27
2022-12-03T00:40:07.147Z,37.10
2022-12-03T00:42:34.080Z,35.27
2022-12-03T00:45:01.047Z,37.67
2022-12-03T00:47:28.009Z,38.73
2022-12-03T00:49:54.980Z,37.53
2022-12-03T00:52:22.041Z,34.63
2022-12-03T00:54:49.042Z,37.40
2022-12-03T00:57:16.354Z,36.90
2022-12-03T00:59:43.391Z,36.10
2022-12-03T01:02:10.378Z,36.60
2022-12-03T01:04:37.589Z,36.13
2022-12-03T01:07:04.652Z,38.50
2022-12-03T01:09:31.845Z,37.07
2022-12-03T01:11:58.773Z,37.00
2022-12-03T01:14:25.784Z,37.40
2022-12-03T01:16:52.747Z,38.37
2022-12-03T01:19:21.148Z,35.70
2022-12-03T01:21:50.563Z,38.47
2022-12-03T01:24:18.896Z,36.57
2022-12-03T01:26:45.722Z,37.90
2022-12-03T01:29:12.810Z,39.30
2022-12-03T01:31:58.290Z,37.50
2022-12-03T01:34:25.163Z,40.37
2022-12-03T01:36:55.087Z,38.20
2022-12-03T01:39:22.040Z,38.80
2022-12-03T01:41:51.383Z,41.70
2022-12-03T01:44:31.425Z,37.73
2022-12-03T01:47:02.488Z,38.73
2022-12-03T01:49:35.844Z,36.10
2022-12-03T01:52:02.992Z,37.83
2022-12-03T01:54:38.965Z,39.50
2022-12-03T01:57:17.200Z,39.40
2022-12-03T01:59:44.780Z,39.07
2022-12-03T02:02:13.926Z,40.97
2022-12-03T02:04:41.147Z,38.73
2022-12-03T02:07:27.000Z,39.60
2022-12-03T02:09:56.508Z,38.17
2022-12-03T02:12:47.513Z,38.67
2022-12-03T02:15:14.736Z,36.43
2022-12-03T02:17:42.667Z,40.43
2022-12-03T02:20:11.304Z,38.00
2022-12-03T02:22:50.854Z,38.37
2022-12-03T02:25:25.004Z,39.80
2022-12-03T02:27:54.806Z,37.73
2022-12-03T02:30:23.955Z,40.37
2022-12-03T02:32:52.409Z,39.23
2022-12-03T02:35:27.573Z,38.27
2022-12-03T02:38:00.250Z,39.47
2022-12-03T02:40:32.398Z,39.57
2022-12-03T02:43:02.485Z,39.27
2022-12-03T02:45:34.210Z,38.53
2022-12-03T02:48:11.666Z,41.53
2022-12-03T02:50:42.488Z,40.97
2022-12-03T02:53:24.198Z,39.33
2022-12-03T02:55:53.107Z,39.73
2022-12-03T02:58:21.822Z,40.57
2022-12-03T03:00:50.024Z,40.50
2022-12-03T03:03:18.236Z,40.60
2022-12-03T03:05:45.607Z,42.33
2022-12-03T03:08:13.292Z,40.57
2022-12-03T03:10:41.822Z,43.67
2022-12-03T03:13:14.731Z,38.17
2022-12-03T03:15:42.389Z,39.73
2022-12-03T03:18:11.078Z,40.60
2022-12-03T03:20:38.694Z,40.70
2022-12-03T03:23:16.534Z,40.27
2022-12-03T03:25:58.728Z,38.73
2022-12-03T03:28:26.879Z,39.13
2022-12-03T03:30:54.224Z,41.87
2022-12-03T03:33:21.321Z,39.67
2022-12-03T03:35:49.818Z,41.80
2022-12-03T03:38:19.669Z,40.73
2022-12-03T03:40:48.330Z,44.40
2022-12-03T03:43:15.410Z,37.20
2022-12-03T03:45:43.073Z,39.27
2022-12-03T03:48:11.414Z,39.77
2022-12-03T03:50:38.704Z,40.73
2022-12-03T03:53:06.268Z,40.80
2022-12-03T03:55:33.778Z,41.60
2022-12-03T03:58:00.933Z,36.73
2022-12-03T04:00:28.142Z,40.13
2022-12-03T04:02:55.026Z,38.70
2022-12-03T04:05:24.004Z,40.70
2022-12-03T04:07:51.521Z,38.90
2022-12-03T04:10:36.898Z,42.10
2022-12-03T04:13:04.660Z,40.27
2022-12-03T04:15:31.556Z,39.20
2022-12-03T04:18:17.138Z,41.63
2022-12-03T04:20:44.129Z,42.63
2022-12-03T04:23:11.036Z,38.53
2022-12-03T04:25:56.475Z,39.33
2022-12-03T04:28:42.199Z,40.33
2022-12-03T04:31:27.719Z,37.97
2022-12-03T04:34:23.739Z,39.17
2022-12-03T04:36:51.009Z,38.20
2022-12-03T04:39:17.867Z,39.80
2022-12-03T04:41:44.812Z,40.27
2022-12-03T04:44:30.682Z,43.23
2022-12-03T04:46:57.634Z,40.23
2022-12-03T04:49:25.742Z,39.87
2022-12-03T04:51:52.706Z,42.43
2022-12-03T04:54:21.564Z,43.80
2022-12-03T04:56:48.448Z,41.63
2022-12-03T04:59:16.580Z,39.20
2022-12-03T05:01:44.649Z,38.53
2022-12-03T05:04:12.669Z,40.17
2022-12-03T05:06:40.033Z,38.70
2022-12-03T05:09:07.181Z,37.43
2022-12-03T05:11:34.185Z,29.93
2022-12-03T05:14:01.145Z,35.53
2022-12-03T05:16:29.161Z,36.10
2022-12-03T05:18:56.042Z,35.63
2022-12-03T05:21:23.047Z,37.40
2022-12-03T05:23:50.164Z,36.33
2022-12-03T05:26:17.141Z,36.43
2022-12-03T05:28:44.150Z,37.33
2022-12-03T05:31:11.255Z,31.43
2022-12-03T05:33:43.797Z,36.67
2022-12-03T05:36:11.625Z,35.87
2022-12-03T05:38:38.921Z,34.87
2022-12-03T05:41:26.164Z,35.93
2022-12-03T05:43:53.348Z,34.50
2022-12-03T05:46:20.307Z,35.67
2022-12-03T05:48:47.288Z,36.63
2022-12-03T05:51:14.257Z,38.07
2022-12-03T05:53:41.226Z,37.00
2022-12-03T05:56:08.174Z,37.77
2022-12-03T05:58:35.062Z,36.47
2022-12-03T06:01:01.973Z,36.27
2022-12-03T06:03:29.075Z,35.43
2022-12-03T06:05:56.147Z,37.23
2022-12-03T06:08:23.053Z,35.27
2022-12-03T06:10:50.036Z,36.27
2022-12-03T06:13:17.489Z,36.53
2022-12-03T06:15:44.918Z,36.10
2022-12-03T06:18:12.240Z,35.60
2022-12-03T06:20:39.289Z,34.83
2022-12-03T06:23:06.148Z,36.33
2022-12-03T06:25:33.050Z,35.90
2022-12-03T06:27:59.912Z,35.20
2022-12-03T06:30:26.879Z,34.77
2022-12-03T06:32:53.827Z,36.87
2022-12-03T06:35:20.752Z,35.60
2022-12-03T06:37:49.276Z,37.00
2022-12-03T06:40:16.900Z,38.40
2022-12-03T06:42:43.986Z,37.80
2022-12-03T06:45:11.833Z,36.23
2022-12-03T06:47:38.913Z,35.03
2022-12-03T06:50:07.136Z,37.73
2022-12-03T06:52:34.160Z,38.27
2022-12-03T06:55:01.284Z,37.33
2022-12-03T06:57:28.250Z,37.13
2022-12-03T06:59:55.320Z,37.90
2022-12-03T07:02:22.478Z,36.60
2022-12-03T07:04:49.295Z,39.77
2022-12-03T07:07:16.129Z,36.50
2022-12-03T07:09:43.201Z,36.60
2022-12-03T07:12:10.172Z,38.03
2022-12-03T07:14:37.914Z,37.73
2022-12-03T07:17:04.964Z,38.60
2022-12-03T07:19:32.937Z,39.77
2022-12-03T07:22:00.333Z,37.67
2022-12-03T07:24:27.801Z,38.23
2022-12-03T07:26:55.077Z,38.77
2022-12-03T07:29:22.215Z,38.33
2022-12-03T07:31:49.136Z,39.67
2022-12-03T07:34:16.203Z,38.43
2022-12-03T07:36:43.342Z,36.37
2022-12-03T07:39:10.201Z,36.97
2022-12-03T07:41:37.093Z,35.27
2022-12-03T07:44:06.598Z,37.33
2022-12-03T07:46:37.734Z,37.17
2022-12-03T07:49:04.738Z,37.83
2022-12-03T07:51:32.466Z,36.23
2022-12-03T07:53:59.487Z,36.80
2022-12-03T07:56:26.459Z,38.80
2022-12-03T07:58:53.293Z,38.50
2022-12-03T08:01:20.228Z,37.13
2022-12-03T08:03:47.114Z,37.67
2022-12-03T08:06:14.278Z,38.10
2022-12-03T08:08:41.145Z,37.00
2022-12-03T08:11:14.052Z,37.90
2022-12-03T08:13:40.977Z,35.67
2022-12-03T08:16:18.476Z,39.07
2022-12-03T08:18:47.097Z,35.73
2022-12-03T08:21:17.703Z,37.57
2022-12-03T08:23:44.913Z,36.20
2022-12-03T08:26:21.635Z,37.47
2022-12-03T08:28:48.547Z,37.60
2022-12-03T08:31:21.161Z,36.93
2022-12-03T08:33:51.142Z,38.27
2022-12-03T08:36:26.657Z,37.73
2022-12-03T08:39:02.097Z,37.70
2022-12-03T08:41:48.625Z,38.97
2022-12-03T08:44:15.596Z,37.27
2022-12-03T08:46:42.534Z,34.93
2022-12-03T08:49:09.841Z,37.83
2022-12-03T08:51:36.748Z,37.07
2022-12-03T08:54:14.942Z,38.60
2022-12-03T08:56:41.992Z,39.07
2022-12-03T08:59:30.978Z,38.73
2022-12-03T09:01:59.819Z,37.57
2022-12-03T09:04:31.449Z,37.03
2022-12-03T09:06:58.880Z,38.77
2022-12-03T09:09:26.405Z,38.00
2022-12-03T09:11:54.069Z,37.57
2022-12-03T09:14:22.654Z,37.20
2022-12-03T09:16:55.833Z,38.73
2022-12-03T09:19:27.760Z,38.33
2022-12-03T09:21:55.144Z,40.03
2022-12-03T09:24:22.153Z,38.97
2022-12-03T09:26:49.442Z,40.33
2022-12-03T09:29:16.364Z,38.73
2022-12-03T09:31:43.452Z,37.50
2022-12-03T09:34:11.039Z,38.30
2022-12-03T09:36:37.963Z,38.87
2022-12-03T09:39:05.186Z,38.50
2022-12-03T09:41:32.246Z,40.10
2022-12-03T09:44:08.584Z,40.83
2022-12-03T09:46:39.868Z,40.63
2022-12-03T09:49:15.589Z,39.17
2022-12-03T09:51:45.242Z,39.37
2022-12-03T09:54:21.139Z,40.47
2022-12-03T09:56:47.986Z,40.30
2022-12-03T09:59:16.202Z,41.00
2022-12-03T10:01:43.439Z,44.53
2022-12-03T10:04:10.713Z,41.37
2022-12-03T10:06:43.941Z,39.97
2022-12-03T10:09:14.681Z,40.27
2022-12-03T10:11:41.540Z,39.27
2022-12-03T10:14:13.157Z,41.13
2022-12-03T10:16:41.496Z,38.70
2022-12-03T10:19:18.175Z,39.77
2022-12-03T10:21:45.103Z,39.23
2022-12-03T10:24:17.992Z,40.87
2022-12-03T10:26:46.283Z,41.17
2022-12-03T10:29:14.948Z,41.23
2022-12-03T10:31:41.871Z,40.63
2022-12-03T10:34:10.067Z,40.20
2022-12-03T10:36:37.508Z,41.13
2022-12-03T10:39:07.427Z,43.00
2022-12-03T10:41:34.538Z,42.27
2022-12-03T10:44:19.641Z,42.80
2022-12-03T10:47:03.899Z,41.67
2022-12-03T10:49:30.979Z,42.30
2022-12-03T10:52:25.623Z,43.17
2022-12-03T10:54:53.465Z,44.00
2022-12-03T10:57:20.664Z,42.87
2022-12-03T10:59:47.672Z,42.77
2022-12-03T11:02:21.407Z,42.80
2022-12-03T11:04:48.567Z,43.20
2022-12-03T11:07:18.114Z,40.87
2022-12-03T11:09:48.158Z,43.43
2022-12-03T11:12:27.322Z,45.90
2022-12-03T11:14:54.950Z,43.53
2022-12-03T11:17:41.102Z,44.67
2022-12-03T11:20:31.034Z,45.10
2022-12-03T11:22:59.234Z,42.70
2022-12-03T11:25:26.593Z,42.60
2022-12-03T11:28:32.456Z,42.93
2022-12-03T11:31:03.596Z,41.43
2022-12-03T11:33:33.559Z,42.23
2022-12-03T11:41:33.879Z,41.80
2022-12-03T11:49:39.266Z,39.53
2022-12-03T12:00:27.769Z,43.57
2022-12-03T12:02:57.406Z,42.20
2022-12-03T12:05:29.752Z,47.67
2022-12-03T12:08:00.231Z,46.63
2022-12-03T12:10:41.152Z,44.33
2022-12-03T12:13:28.046Z,42.10
2022-12-03T12:16:02.662Z,42.17
2022-12-03T12:18:52.341Z,39.70
2022-12-03T12:21:43.705Z,44.10
2022-12-03T12:24:40.526Z,41.47
2022-12-03T12:27:16.651Z,42.70
2022-12-03T12:29:48.669Z,43.30
2022-12-03T12:32:17.890Z,41.80
2022-12-03T12:34:49.892Z,43.03
2022-12-03T12:37:36.042Z,42.60
2022-12-03T12:40:12.703Z,39.80
2022-12-03T12:42:50.318Z,40.43
2022-12-03T12:45:20.420Z,41.37
2022-12-03T12:48:07.962Z,43.37
2022-12-03T12:50:35.422Z,42.70
2022-12-03T12:53:20.284Z,44.60
2022-12-03T12:55:49.151Z,41.57
2022-12-03T12:58:19.559Z,42.97
2022-12-03T13:00:53.008Z,41.13
2022-12-03T13:03:23.553Z,38.00
2022-12-03T13:05:52.767Z,39.77
2022-12-03T13:08:32.948Z,40.00
2022-12-03T13:11:01.578Z,38.77
2022-12-03T13:13:43.323Z,39.73
2022-12-03T13:16:27.885Z,41.27
2022-12-03T13:18:57.135Z,41.57
2022-12-03T13:21:39.607Z,42.43
2022-12-03T13:24:34.586Z,39.53
2022-12-03T13:27:37.370Z,41.97
2022-12-03T13:30:16.233Z,41.50
2022-12-03T13:32:44.367Z,43.07
2022-12-03T13:35:24.154Z,42.67
2022-12-03T13:37:51.190Z,40.90
2022-12-03T13:40:35.055Z,40.40
2022-12-03T13:43:12.345Z,43.23
2022-12-03T13:45:41.099Z,41.60
2022-12-03T13:48:20.274Z,43.23
2022-12-03T13:50:47.184Z,42.97
2022-12-03T13:53:29.756Z,45.50
2022-12-03T13:56:31.460Z,42.90
2022-12-03T13:59:00.410Z,41.93
2022-12-03T14:01:28.636Z,42.10
2022-12-03T14:03:55.972Z,45.57
2022-12-03T14:06:22.862Z,43.07
2022-12-03T14:08:49.831Z,43.07
2022-12-03T14:11:46.043Z,41.87
2022-12-03T14:14:12.904Z,42.27
2022-12-03T14:16:40.172Z,44.53
2022-12-03T14:19:07.340Z,46.07
2022-12-03T14:21:34.305Z,44.33
2022-12-03T14:24:01.454Z,47.70
2022-12-03T14:26:28.465Z,46.07
2022-12-03T14:28:55.336Z,46.37
2022-12-03T14:31:22.300Z,45.77
2022-12-03T14:33:49.957Z,46.77
2022-12-03T14:36:17.221Z,43.50
2022-12-03T14:38:44.222Z,45.87
2022-12-03T14:41:31.219Z,43.47
2022-12-03T14:43:58.074Z,45.87
2022-12-03T14:46:25.108Z,45.83
2022-12-03T14:48:54.225Z,47.17
2022-12-03T14:51:21.686Z,46.70
2022-12-03T14:53:48.562Z,45.10
2022-12-03T14:56:15.366Z,50.43
2022-12-03T14:58:42.271Z,44.30
2022-12-03T15:01:09.301Z,45.43
2022-12-03T15:03:36.315Z,43.23
2022-12-03T15:06:03.263Z,45.03
2022-12-03T15:08:30.632Z,47.47
2022-12-03T15:10:57.729Z,48.33
2022-12-03T15:13:24.685Z,47.40
2022-12-03T15:15:51.720Z,47.50
2022-12-03T15:18:18.786Z,47.17
2022-12-03T15:20:45.885Z,48.87
2022-12-03T15:23:14.562Z,48.73
2022-12-03T15:25:41.907Z,50.13
2022-12-03T15:28:08.966Z,50.60
2022-12-03T15:30:35.992Z,52.43
2022-12-03T15:33:03.865Z,49.27
2022-12-03T15:35:31.176Z,48.93
2022-12-03T15:37:58.239Z,50.33
2022-12-03T15:40:29.491Z,46.67
2022-12-03T15:42:56.365Z,48.67
2022-12-03T15:45:23.364Z,49.27
2022-12-03T15:47:50.230Z,47.33
2022-12-03T15:50:17.454Z,48.77
2022-12-03T15:52:44.569Z,50.83
2022-12-03T15:55:11.825Z,48.30
2022-12-03T15:57:38.737Z,47.97
2022-12-03T16:00:07.240Z,49.13
2022-12-03T16:02:39.655Z,50.27
2022-12-03T16:05:09.809Z,50.30
2022-12-03T16:07:37.385Z,51.20
2022-12-03T16:10:06.657Z,47.30
2022-12-03T16:12:33.949Z,48.37
2022-12-03T16:15:00.820Z,52.30
2022-12-03T16:17:27.712Z,51.13
2022-12-03T16:19:54.823Z,49.03
2022-12-03T16:22:22.146Z,49.63
2022-12-03T16:24:49.100Z,50.50
2022-12-03T16:27:15.942Z,48.00
2022-12-03T16:29:42.799Z,48.40
2022-12-03T16:32:09.816Z,48.73
2022-12-03T16:34:36.654Z,48.60
2022-12-03T16:37:04.817Z,44.33
2022-12-03T16:39:35.010Z,47.00
2022-12-03T16:42:01.888Z,48.07
2022-12-03T16:44:33.482Z,44.93
2022-12-03T16:47:01.463Z,46.40
2022-12-03T16:49:28.726Z,48.17
2022-12-03T16:51:55.858Z,48.67
2022-12-03T16:54:22.780Z,49.30
2022-12-03T16:56:49.770Z,47.07
2022-12-03T16:59:16.813Z,46.37
2022-12-03T17:01:44.250Z,45.47
2022-12-03T17:04:11.773Z,46.17
2022-12-03T17:06:38.983Z,43.77
2022-12-03T17:09:05.894Z,44.87
2022-12-03T17:11:32.769Z,44.23
2022-12-03T17:13:59.762Z,45.17
2022-12-03T17:16:26.715Z,46.03
2022-12-03T17:18:53.652Z,46.90
2022-12-03T17:21:20.810Z,49.03
2022-12-03T17:23:51.021Z,48.23
2022-12-03T17:26:19.150Z,51.63
2022-12-03T17:28:46.147Z,53.33
2022-12-03T17:31:13.679Z,51.30
2022-12-03T17:33:40.667Z,53.83
2022-12-03T17:36:07.863Z,52.60
2022-12-03T17:38:39.103Z,54.37
2022-12-03T17:41:07.572Z,57.07
2022-12-03T17:43:34.564Z,55.53
2022-12-03T17:46:01.546Z,55.70
2022-12-03T17:48:31.153Z,61.03
2022-12-03T17:50:58.348Z,57.17
2022-12-03T17:53:25.370Z,63.37
2022-12-03T17:55:52.421Z,62.07
2022-12-03T17:58:19.626Z,62.47
2022-12-03T18:00:46.525Z,68.13
2022-12-03T18:03:13.441Z,66.97
2022-12-03T18:05:40.406Z,66.83
2022-12-03T18:08:07.506Z,62.80
2022-12-03T18:10:34.832Z,67.07
2022-12-03T18:13:02.578Z,66.63
2022-12-03T18:15:30.309Z,67.93
2022-12-03T18:17:57.332Z,63.83
2022-12-03T18:20:24.214Z,69.23
2022-12-03T18:22:51.371Z,66.10
2022-12-03T18:25:18.648Z,64.40
2022-12-03T18:27:46.448Z,64.03
2022-12-03T18:30:13.535Z,68.90
2022-12-03T18:32:40.400Z,68.87
2022-12-03T18:35:07.565Z,68.30
2022-12-03T18:37:34.766Z,62.13
2022-12-03T18:40:12.088Z,68.03
2022-12-03T18:42:39.988Z,62.83
2022-12-03T18:45:10.491Z,61.13
2022-12-03T18:47:37.553Z,55.90
2022-12-03T18:50:05.886Z,64.93
2022-12-03T18:52:32.925Z,64.00
2022-12-03T18:54:59.816Z,59.90
2022-12-03T18:57:27.144Z,54.17
2022-12-03T18:59:54.518Z,60.90
2022-12-03T19:05:09.414Z,55.17
2022-12-03T19:07:36.454Z,59.73
2022-12-03T19:10:04.013Z,59.23
2022-12-03T19:12:31.294Z,57.53
2022-12-03T19:14:58.204Z,56.50
2022-12-03T19:17:27.146Z,58.40
2022-12-03T19:19:54.773Z,62.07
2022-12-03T19:22:22.509Z,50.43
2022-12-03T19:24:49.529Z,56.93
2022-12-03T19:27:16.565Z,62.23
2022-12-03T19:29:43.553Z,62.07
2022-12-03T19:32:10.957Z,59.93
2022-12-03T19:34:38.218Z,58.50
2022-12-03T19:37:05.111Z,59.20
2022-12-03T19:39:33.255Z,58.27
2022-12-03T19:42:00.137Z,57.30
2022-12-03T19:44:27.039Z,64.43
2022-12-03T19:46:54.227Z,66.67
2022-12-03T19:49:21.505Z,63.40
2022-12-03T19:51:48.369Z,57.90
2022-12-03T19:54:16.302Z,60.77
2022-12-03T19:56:43.411Z,57.83
2022-12-03T19:59:14.269Z,61.50
2022-12-03T20:01:43.338Z,60.93
2022-12-03T20:04:12.511Z,62.03
2022-12-03T20:06:40.179Z,66.27
2022-12-03T20:09:11.563Z,57.07
2022-12-03T20:11:39.352Z,58.03
2022-12-03T20:14:09.160Z,61.10
2022-12-03T20:16:37.189Z,59.67
2022-12-03T20:19:06.950Z,59.07
2022-12-03T20:21:36.286Z,57.63
2022-12-03T20:24:04.967Z,60.87
2022-12-03T20:26:32.848Z,62.27
2022-12-03T20:29:00.514Z,72.43
2022-12-03T20:31:30.226Z,60.63
2022-12-03T20:34:00.049Z,59.30
2022-12-03T20:36:29.674Z,57.33
2022-12-03T20:38:58.242Z,61.77
2022-12-03T20:41:25.604Z,67.87
2022-12-03T20:43:54.083Z,61.57
2022-12-03T20:46:27.353Z,58.70
2022-12-03T20:48:55.295Z,63.30
2022-12-03T20:51:25.032Z,57.60
2022-12-03T20:53:52.506Z,59.67
2022-12-03T20:56:31.644Z,61.37
2022-12-03T20:59:07.999Z,54.60
2022-12-03T21:01:36.254Z,61.27
2022-12-03T21:04:04.840Z,56.77
2022-12-03T21:06:34.170Z,56.67
2022-12-03T21:09:01.950Z,55.63
2022-12-03T21:11:31.330Z,54.63
2022-12-03T21:13:59.253Z,57.80
2022-12-03T21:16:52.512Z,56.63
2022-12-03T21:19:18.422Z,53.30
2022-12-03T21:21:45.465Z,61.70
2022-12-03T21:24:13.588Z,63.77
2022-12-03T21:26:41.393Z,60.10
2022-12-03T21:29:08.772Z,59.27
2022-12-03T21:31:37.409Z,56.10
2022-12-03T21:34:05.176Z,60.47
2022-12-03T21:36:32.564Z,57.37
2022-12-03T21:38:59.868Z,56.93
2022-12-03T21:41:27.124Z,57.33
2022-12-03T21:43:54.136Z,56.90
2022-12-03T21:47:12.406Z,59.83
2022-12-03T21:49:08.040Z,58.17
2022-12-03T21:51:35.323Z,60.87
2022-12-03T21:54:02.300Z,58.20
2022-12-03T21:56:31.838Z,63.67
2022-12-03T21:58:58.882Z,61.83
2022-12-03T22:01:26.183Z,59.10
2022-12-03T22:03:53.190Z,58.93
2022-12-03T22:06:20.980Z,65.30
2022-12-03T22:08:48.288Z,56.63
2022-12-03T22:11:20.964Z,64.77
2022-12-03T22:13:47.874Z,68.07
2022-12-03T22:16:20.512Z,67.00
2022-12-03T22:18:48.232Z,63.23
2022-12-03T22:21:20.627Z,76.70
2022-12-03T22:23:47.866Z,83.83
2022-12-03T22:26:17.050Z,81.20
2022-12-03T22:28:45.088Z,85.50
2022-12-03T22:31:12.470Z,83.83
2022-12-03T22:33:40.103Z,85.33
2022-12-03T22:36:20.960Z,86.30
2022-12-03T22:38:49.946Z,82.20
2022-12-03T22:41:17.397Z,78.00
2022-12-03T22:43:45.424Z,84.37
2022-12-03T22:46:13.164Z,82.67
2022-12-03T22:48:42.150Z,76.70
2022-12-03T22:51:14.435Z,81.07
2022-12-03T22:53:41.344Z,81.57
2022-12-03T22:56:08.659Z,82.07
2022-12-03T22:58:38.284Z,82.13
2022-12-03T23:01:06.071Z,74.10
2022-12-03T23:03:33.091Z,80.37
2022-12-03T23:06:00.099Z,82.87
2022-12-03T23:08:26.950Z,80.93
2022-12-03T23:10:53.910Z,74.97
2022-12-03T23:13:21.162Z,80.50
2022-12-03T23:15:50.997Z,78.97
2022-12-03T23:18:19.155Z,67.30
2022-12-03T23:20:51.709Z,73.90
2022-12-03T23:23:20.180Z,69.43
2022-12-03T23:26:01.024Z,67.37
2022-12-03T23:28:29.496Z,72.60
2022-12-03T23:30:56.678Z,66.43
2022-12-03T23:33:24.421Z,67.97
2022-12-03T23:35:51.535Z,67.93
2022-12-03T23:38:18.638Z,64.03
2022-12-03T23:40:48.220Z,66.43
2022-12-03T23:43:16.248Z,61.87
2022-12-03T23:45:43.122Z,64.03
2022-12-03T23:48:10.159Z,61.73
2022-12-03T23:50:39.655Z,57.40
2022-12-03T23:53:06.576Z,52.73
2022-12-03T23:55:33.816Z,55.87
2022-12-03T23:58:00.647Z,50.77
